Easton, Massachusetts
Current Conditions -  °F | °C
As of 12:52 AM on Wednesday 22 Oct 2014 (Local Time) from KTAN Reporting Station
Haze Haze  
Wind Chill: 56°   Ceiling: 300
Heat Index: 56°   Visibility: 6mi
Dew Point: 54°   Wind: 6mph
Humidity: 93%   Direction: NA
Pressure: 29.96"   Gusts: NA
Location:  42.02°N, 71.13°W
Report Text: KTAN 220452Z AUTO VRB05KT 6SM BR OVC003 13/12 A2996 RMK AO2 SLP144 T01330122 401830050
Loading
Personal Weather Stations






























Interactive Weather Map
Tropical Storm Tracking
New forecast layout! Learn more

10-Day Weather Forecast

Advertisements
Track Severe Weather on mobile